Time;durP1;ratioP1;P1;durP2;ratioP2;P2;SDS_P1;SDS_P2;PMS_P1;PMS_P2;Temp;Humidity;BMP_temperature;BMP_pressure;BME280_temperature;BME280_humidity;BME280_pressure;Samples;Min_cycle;Max_cycle;Signal;HPM_P1;HPM_P2
2022/09/15 00:01:20;;;;;;;4.28;1.88;;;20.20;58.60;;;;;;5052781;28;20179;-70
2022/09/15 00:03:46;;;;;;;1.73;1.60;;;20.20;58.70;;;;;;5052105;28;20194;-69
2022/09/15 00:06:11;;;;;;;2.22;1.50;;;20.20;58.60;;;;;;5052460;28;20227;-69
2022/09/15 00:08:37;;;;;;;2.35;1.55;;;20.20;58.60;;;;;;5052354;28;20248;-68
2022/09/15 00:11:09;;;;;;;2.50;1.70;;;20.20;58.70;;;;;;5052712;28;20175;-69
2022/09/15 00:13:35;;;;;;;2.50;1.58;;;20.20;58.70;;;;;;5052884;28;20543;-70
2022/09/15 00:16:00;;;;;;;1.70;1.50;;;20.20;58.60;;;;;;5051779;28;20260;-70
2022/09/15 00:18:26;;;;;;;2.53;1.45;;;20.20;58.60;;;;;;5052711;28;20229;-70
2022/09/15 00:20:51;;;;;;;1.80;1.70;;;20.20;59.40;;;;;;5052955;28;20225;-70
2022/09/15 00:23:17;;;;;;;2.03;1.70;;;20.20;58.70;;;;;;5052210;28;20182;-69
2022/09/15 00:25:52;;;;;;;1.67;1.38;;;20.20;58.70;;;;;;5052933;28;20167;-69
2022/09/15 00:28:18;;;;;;;3.05;1.60;;;20.10;58.70;;;;;;5052281;28;20218;-69
2022/09/15 00:30:45;;;;;;;1.67;1.35;;;20.10;58.80;;;;;;5051993;28;20183;-70
2022/09/15 00:33:12;;;;;;;2.65;1.48;;;20.20;58.90;;;;;;5052331;28;20229;-70
2022/09/15 00:35:38;;;;;;;1.85;1.65;;;20.10;59.00;;;;;;5054546;28;20179;-69
2022/09/15 00:38:04;;;;;;;4.18;1.60;;;20.10;58.90;;;;;;5055793;28;20763;-70
2022/09/15 00:40:30;;;;;;;2.00;1.65;;;20.10;59.00;;;;;;5057034;28;20174;-69
2022/09/15 00:42:55;;;;;;;2.65;1.77;;;20.10;59.10;;;;;;5056862;28;20178;-70
2022/09/15 00:45:21;;;;;;;2.53;1.98;;;20.10;59.10;;;;;;5055677;28;20175;-70
2022/09/15 00:47:46;;;;;;;2.50;1.80;;;20.20;59.20;;;;;;5056477;28;20203;-68
2022/09/15 00:50:17;;;;;;;2.45;1.65;;;20.10;59.80;;;;;;5055095;28;20530;-69
2022/09/15 00:52:46;;;;;;;3.03;1.85;;;20.10;59.30;;;;;;5054705;28;20667;-69
2022/09/15 00:55:29;;;;;;;5.18;2.13;;;20.10;59.40;;;;;;5056199;28;20179;-70
2022/09/15 00:58:00;;;;;;;3.70;2.60;;;20.10;59.50;;;;;;5054582;28;20185;-70
2022/09/15 01:00:26;;;;;;;4.25;2.55;;;20.10;59.50;;;;;;5056658;28;20183;-70
2022/09/15 01:02:52;;;;;;;3.05;2.47;;;20.10;59.60;;;;;;5056524;28;20179;-71
2022/09/15 01:05:23;;;;;;;3.50;2.72;;;20.10;59.70;;;;;;5054262;28;20244;-69
2022/09/15 01:07:52;;;;;;;3.58;2.10;;;20.10;59.70;;;;;;5054876;28;20241;-69
2022/09/15 01:10:26;;;;;;;3.28;2.63;;;20.10;59.80;;;;;;5054909;28;20555;-69
2022/09/15 01:12:54;;;;;;;3.60;2.58;;;20.10;59.80;;;;;;5054615;28;20178;-70
2022/09/15 01:15:20;;;;;;;5.43;3.20;;;20.10;60.00;;;;;;5055669;28;20622;-71
2022/09/15 01:17:52;;;;;;;5.18;3.20;;;20.10;60.00;;;;;;5054924;28;20178;-70
2022/09/15 01:20:50;;;;;;;3.50;2.65;;;20.10;60.10;;;;;;5053936;28;20171;-70
2022/09/15 01:23:44;;;;;;;3.90;2.70;;;20.10;60.20;;;;;;5054591;28;21040;-69
2022/09/15 01:26:26;;;;;;;3.22;2.90;;;20.10;60.30;;;;;;5055143;28;20570;-69
2022/09/15 01:29:16;;;;;;;6.10;3.20;;;20.10;60.30;;;;;;5055943;28;20244;-69
2022/09/15 01:34:45;;;;;;;4.32;2.45;;;20.10;60.40;;;;;;5054132;28;20304;-70
2022/09/15 01:37:13;;;;;;;2.92;2.35;;;20.10;60.40;;;;;;5054673;28;20179;-69
2022/09/15 01:39:40;;;;;;;3.88;2.58;;;20.10;60.40;;;;;;5054489;28;20642;-71
2022/09/15 01:42:07;;;;;;;2.85;2.58;;;20.10;60.50;;;;;;5053668;28;20328;-71
2022/09/15 01:44:39;;;;;;;4.63;2.70;;;20.10;60.50;;;;;;5054566;28;20203;-70
2022/09/15 01:47:06;;;;;;;5.35;2.55;;;20.10;60.50;;;;;;5052241;28;20207;-69
2022/09/15 01:49:45;;;;;;;4.65;2.60;;;20.10;60.50;;;;;;5055536;28;20186;-68
2022/09/15 01:52:10;;;;;;;2.10;1.95;;;20.10;60.60;;;;;;5053828;28;20178;-69
2022/09/15 01:54:39;;;;;;;6.07;2.13;;;20.10;60.50;;;;;;5053514;28;20183;-69
2022/09/15 01:57:04;;;;;;;3.65;2.80;;;20.10;60.60;;;;;;5053844;28;20203;-71
2022/09/15 01:59:30;;;;;;;4.38;2.50;;;20.10;61.40;;;;;;5055556;28;20180;-70
2022/09/15 02:02:04;;;;;;;3.55;2.22;;;20.10;60.60;;;;;;5054651;28;20171;-70
2022/09/15 02:04:37;;;;;;;3.05;2.08;;;20.00;60.70;;;;;;5054080;28;20179;-70
2022/09/15 02:07:24;;;;;;;3.40;2.33;;;20.10;60.70;;;;;;5053478;28;20650;-69
2022/09/15 02:09:59;;;;;;;3.63;2.15;;;20.10;60.70;;;;;;5054527;28;20175;-69
2022/09/15 02:12:38;;;;;;;1.73;1.60;;;20.00;60.70;;;;;;5053968;28;20179;-68
2022/09/15 02:15:08;;;;;;;4.18;2.30;;;20.10;60.80;;;;;;5053062;28;20186;-69
2022/09/15 02:17:37;;;;;;;3.08;2.33;;;20.00;60.70;;;;;;5055217;28;20186;-70
2022/09/15 02:20:14;;;;;;;3.03;2.00;;;20.00;60.70;;;;;;5053479;28;20523;-69
2022/09/15 02:22:39;;;;;;;1.75;1.50;;;20.00;60.80;;;;;;5053092;28;20178;-69
2022/09/15 02:25:13;;;;;;;2.25;1.75;;;20.00;60.90;;;;;;5053516;28;20175;-69
2022/09/15 02:27:43;;;;;;;3.42;1.67;;;20.00;61.10;;;;;;5053576;28;20742;-68
2022/09/15 02:30:10;;;;;;;4.07;1.80;;;20.00;61.30;;;;;;5052505;28;20747;-68
2022/09/15 02:32:37;;;;;;;1.55;1.40;;;20.00;61.30;;;;;;5053583;28;20250;-69
2022/09/15 02:35:05;;;;;;;1.73;1.40;;;20.00;61.30;;;;;;5053239;28;20190;-69
2022/09/15 02:37:30;;;;;;;1.67;1.50;;;20.00;61.40;;;;;;5052790;28;20179;-70
2022/09/15 02:39:56;;;;;;;1.52;1.30;;;20.00;61.60;;;;;;5054634;28;20178;-70
2022/09/15 02:42:23;;;;;;;3.90;1.50;;;20.00;61.50;;;;;;5054677;28;20706;-70
2022/09/15 02:44:49;;;;;;;2.58;2.10;;;20.00;61.60;;;;;;5053962;28;20197;-69
2022/09/15 02:47:14;;;;;;;2.67;1.60;;;20.00;61.60;;;;;;5054001;28;20677;-69
2022/09/15 02:49:40;;;;;;;1.83;1.60;;;20.00;61.70;;;;;;5054358;28;20167;-68
2022/09/15 02:52:06;;;;;;;1.88;1.70;;;20.00;61.60;;;;;;5053196;28;20179;-69
2022/09/15 02:54:31;;;;;;;1.90;1.70;;;20.00;61.70;;;;;;5054289;28;20258;-69
2022/09/15 02:56:58;;;;;;;2.55;1.90;;;20.00;61.80;;;;;;5053861;28;20254;-69
2022/09/15 02:59:24;;;;;;;2.88;1.77;;;20.00;61.70;;;;;;5053438;28;20183;-69
2022/09/15 03:01:50;;;;;;;2.63;1.73;;;20.00;61.80;;;;;;5054261;28;20229;-70
2022/09/15 03:04:16;;;;;;;2.45;1.92;;;20.00;61.90;;;;;;5053573;28;20175;-69
2022/09/15 03:06:42;;;;;;;2.08;1.88;;;20.00;61.80;;;;;;5053525;28;20767;-69
2022/09/15 03:09:08;;;;;;;2.88;1.70;;;19.90;61.70;;;;;;5053551;28;20682;-68
2022/09/15 03:11:34;;;;;;;2.50;1.73;;;20.00;61.80;;;;;;5053355;28;20595;-69
2022/09/15 03:14:01;;;;;;;2.00;1.70;;;20.00;61.90;;;;;;5053813;28;20191;-69
2022/09/15 03:16:27;;;;;;;2.15;1.70;;;20.00;61.80;;;;;;5054033;28;20179;-70
2022/09/15 03:18:54;;;;;;;2.72;1.83;;;19.90;61.70;;;;;;5053075;28;20175;-70
2022/09/15 03:21:20;;;;;;;2.35;1.90;;;20.00;61.80;;;;;;5053821;28;20544;-69
2022/09/15 03:23:45;;;;;;;2.72;1.65;;;19.90;61.70;;;;;;5053652;28;20642;-69
2022/09/15 03:26:11;;;;;;;2.60;1.75;;;20.00;61.60;;;;;;5052571;28;20183;-68
2022/09/15 03:28:37;;;;;;;2.78;1.92;;;19.90;61.70;;;;;;5053719;28;20669;-68
2022/09/15 03:31:02;;;;;;;1.88;1.63;;;19.90;61.80;;;;;;5053483;28;20209;-69
2022/09/15 03:33:28;;;;;;;2.35;1.38;;;19.90;61.90;;;;;;5052912;28;20179;-69
2022/09/15 03:35:54;;;;;;;2.33;1.58;;;19.90;61.80;;;;;;5053376;28;20258;-69
2022/09/15 03:38:20;;;;;;;2.45;2.17;;;19.90;61.90;;;;;;5053245;28;20175;-68
2022/09/15 03:41:00;;;;;;;2.50;1.83;;;19.90;61.80;;;;;;5052951;28;20511;-69
2022/09/15 03:43:26;;;;;;;2.47;1.92;;;19.90;62.00;;;;;;5053398;28;20183;-69
2022/09/15 03:45:52;;;;;;;2.25;1.63;;;19.90;61.90;;;;;;5053345;28;20225;-69
2022/09/15 03:48:18;;;;;;;2.40;1.67;;;19.90;62.90;;;;;;5052220;28;20206;-70
2022/09/15 03:50:43;;;;;;;1.77;1.48;;;19.90;62.00;;;;;;5053392;28;20245;-68
2022/09/15 03:53:09;;;;;;;2.30;1.90;;;19.90;62.90;;;;;;5053058;28;20206;-69
2022/09/15 03:55:34;;;;;;;2.08;1.50;;;19.90;62.00;;;;;;5052657;28;20206;-70
2022/09/15 03:58:00;;;;;;;1.60;1.45;;;19.90;62.00;;;;;;5052995;28;20254;-70
2022/09/15 04:00:25;;;;;;;1.70;1.40;;;19.90;62.00;;;;;;5053117;28;20608;-72
2022/09/15 04:02:51;;;;;;;1.77;1.58;;;19.90;62.00;;;;;;5052407;28;20595;-70
2022/09/15 04:05:17;;;;;;;1.70;1.60;;;19.90;62.00;;;;;;5052684;28;20175;-70
2022/09/15 04:07:42;;;;;;;2.35;1.75;;;19.80;62.00;;;;;;5051927;28;20239;-69
2022/09/15 04:10:08;;;;;;;2.70;1.70;;;19.90;62.00;;;;;;5052134;28;20171;-68
2022/09/15 04:12:35;;;;;;;1.77;1.40;;;19.90;62.10;;;;;;5053139;28;20179;-70
2022/09/15 04:15:00;;;;;;;2.92;1.60;;;19.90;62.10;;;;;;5052063;28;20179;-70
2022/09/15 04:17:26;;;;;;;1.52;1.38;;;19.90;62.10;;;;;;5052750;28;20173;-70
2022/09/15 04:19:51;;;;;;;1.65;1.38;;;19.80;62.10;;;;;;5052808;28;20183;-69
2022/09/15 04:22:17;;;;;;;1.83;1.60;;;19.90;62.20;;;;;;5051725;28;20203;-69
2022/09/15 04:24:43;;;;;;;1.45;1.35;;;19.90;62.10;;;;;;5052742;28;20186;-70
2022/09/15 04:27:08;;;;;;;2.60;1.70;;;19.90;62.10;;;;;;5052733;28;20175;-70
2022/09/15 04:29:34;;;;;;;3.05;1.90;;;19.90;62.10;;;;;;5052264;28;20178;-70
2022/09/15 04:31:59;;;;;;;2.35;1.73;;;19.90;62.20;;;;;;5052637;28;20171;-70
2022/09/15 04:34:25;;;;;;;2.60;1.90;;;19.80;62.10;;;;;;5052631;28;20180;-70
2022/09/15 04:36:50;;;;;;;1.98;1.77;;;19.80;62.20;;;;;;5052100;28;20178;-72
2022/09/15 04:39:16;;;;;;;1.77;1.50;;;19.80;62.10;;;;;;5052804;28;20521;-71
2022/09/15 04:41:41;;;;;;;2.25;2.03;;;19.80;62.10;;;;;;5052621;28;20181;-71
2022/09/15 04:44:07;;;;;;;2.70;2.10;;;19.80;62.10;;;;;;5051796;28;20652;-71
2022/09/15 04:46:33;;;;;;;2.25;2.05;;;19.80;62.00;;;;;;5052737;28;20175;-70
2022/09/15 04:48:58;;;;;;;2.80;2.20;;;19.80;61.70;;;;;;5052341;28;20211;-70
2022/09/15 04:51:24;;;;;;;1.73;1.38;;;19.80;62.00;;;;;;5051770;28;20175;-69
2022/09/15 04:53:50;;;;;;;2.20;1.50;;;19.80;62.90;;;;;;5052776;28;20200;-70
2022/09/15 04:56:20;;;;;;;3.80;1.83;;;19.80;62.10;;;;;;5052281;28;20175;-69
2022/09/15 04:58:47;;;;;;;2.10;1.90;;;19.80;62.00;;;;;;5051889;28;20194;-70
2022/09/15 05:01:18;;;;;;;2.47;2.13;;;19.80;61.80;;;;;;5052212;28;20232;-70
2022/09/15 05:03:45;;;;;;;3.47;1.80;;;19.80;61.90;;;;;;5052529;28;20186;-70
2022/09/15 05:06:12;;;;;;;3.35;2.13;;;19.80;61.90;;;;;;5051132;28;20751;-69
2022/09/15 05:08:37;;;;;;;3.03;2.03;;;19.80;61.90;;;;;;5052191;28;20578;-69
2022/09/15 05:11:05;;;;;;;2.92;1.65;;;19.80;61.80;;;;;;5051478;28;20171;-69
2022/09/15 05:13:30;;;;;;;1.60;1.50;;;19.80;61.90;;;;;;5052509;28;20180;-71
2022/09/15 05:16:06;;;;;;;1.50;1.40;;;19.80;62.00;;;;;;5052431;28;20179;-70
2022/09/15 05:18:32;;;;;;;3.33;2.03;;;19.80;63.00;;;;;;5051783;28;20179;-69
2022/09/15 05:21:01;;;;;;;3.67;2.38;;;19.80;61.90;;;;;;5052607;28;20179;-70
2022/09/15 05:23:27;;;;;;;2.78;2.20;;;19.80;61.60;;;;;;5055997;28;20562;-70
2022/09/15 05:25:56;;;;;;;2.33;1.65;;;19.80;61.60;;;;;;5055584;28;20209;-69
2022/09/15 05:28:23;;;;;;;5.10;2.70;;;19.80;61.60;;;;;;5055862;28;20207;-69
2022/09/15 05:30:50;;;;;;;2.10;1.90;;;19.80;61.60;;;;;;5055783;28;20250;-69
2022/09/15 05:33:17;;;;;;;4.40;1.90;;;19.80;61.50;;;;;;5054768;28;20620;-70
2022/09/15 05:35:52;;;;;;;2.05;1.85;;;19.80;61.90;;;;;;5056151;28;20185;-70
2022/09/15 05:38:18;;;;;;;4.30;2.13;;;19.80;61.80;;;;;;5055472;28;20599;-70
2022/09/15 05:40:43;;;;;;;2.50;2.30;;;19.80;61.50;;;;;;5055071;28;20199;-70
2022/09/15 05:43:10;;;;;;;3.15;2.25;;;19.80;61.30;;;;;;5055342;28;20266;-70
2022/09/15 05:45:35;;;;;;;2.65;2.30;;;19.80;61.40;;;;;;5055537;28;20183;-70
2022/09/15 05:48:02;;;;;;;2.38;1.95;;;19.70;61.10;;;;;;5054640;28;20215;-69
2022/09/15 05:50:29;;;;;;;4.38;2.60;;;19.70;61.20;;;;;;5055633;28;20240;-69
2022/09/15 05:52:55;;;;;;;3.88;2.30;;;19.80;61.30;;;;;;5055700;28;20190;-69
2022/09/15 05:55:20;;;;;;;3.60;2.25;;;19.80;61.30;;;;;;5054474;28;20176;-69
2022/09/15 05:57:46;;;;;;;4.35;2.10;;;19.80;61.30;;;;;;5055252;28;20224;-70
2022/09/15 06:00:12;;;;;;;4.13;2.22;;;19.80;61.40;;;;;;5054183;28;20185;-70
2022/09/15 06:02:37;;;;;;;2.88;1.58;;;19.70;61.70;;;;;;5055736;28;20183;-70
2022/09/15 06:05:03;;;;;;;2.20;1.70;;;19.80;62.00;;;;;;5055054;28;20182;-70
2022/09/15 06:07:29;;;;;;;2.17;1.60;;;19.70;62.10;;;;;;5054220;28;20234;-68
2022/09/15 06:09:54;;;;;;;1.95;1.63;;;19.80;62.20;;;;;;5055270;28;20179;-69
2022/09/15 06:12:20;;;;;;;1.83;1.50;;;19.70;62.20;;;;;;5054559;28;20186;-70
2022/09/15 06:14:49;;;;;;;2.35;1.80;;;19.70;62.30;;;;;;5054347;28;20179;-72
2022/09/15 06:17:15;;;;;;;1.42;1.30;;;19.80;62.10;;;;;;5054544;28;20687;-73
2022/09/15 06:19:41;;;;;;;4.40;1.80;;;19.80;62.30;;;;;;5055126;28;20171;-69
2022/09/15 06:22:06;;;;;;;2.45;1.73;;;19.80;62.10;;;;;;5054053;28;20171;-71
2022/09/15 06:24:32;;;;;;;4.63;1.67;;;19.80;62.20;;;;;;5054879;28;20640;-71
2022/09/15 06:26:57;;;;;;;2.30;1.70;;;19.80;62.30;;;;;;5054589;28;20180;-70
2022/09/15 06:29:24;;;;;;;2.13;1.23;;;19.80;62.30;;;;;;5053512;28;20207;-70
2022/09/15 06:31:49;;;;;;;3.97;1.80;;;19.80;62.40;;;;;;5054940;28;20167;-70
2022/09/15 06:34:15;;;;;;;8.50;1.80;;;19.70;62.40;;;;;;5053768;28;20691;-71
2022/09/15 06:36:40;;;;;;;2.38;1.65;;;19.80;62.60;;;;;;5054210;28;20183;-70
2022/09/15 06:39:07;;;;;;;1.77;1.58;;;19.80;62.50;;;;;;5054223;28;20266;-71
2022/09/15 06:41:33;;;;;;;1.58;1.40;;;19.80;62.50;;;;;;5054599;28;20214;-71
2022/09/15 06:43:58;;;;;;;2.28;2.03;;;19.80;62.40;;;;;;5053472;28;20576;-72
2022/09/15 06:46:24;;;;;;;2.83;1.45;;;19.80;62.10;;;;;;5054585;28;20537;-68
2022/09/15 06:48:50;;;;;;;8.25;2.22;;;19.80;62.10;;;;;;5054322;28;20301;-72
2022/09/15 06:51:18;;;;;;;9.63;2.10;;;19.80;62.10;;;;;;5053866;28;20798;-72
2022/09/15 06:53:43;;;;;;;4.93;1.50;;;19.80;62.30;;;;;;5054272;28;20237;-72
2022/09/15 06:56:11;;;;;;;3.03;1.60;;;19.80;62.20;;;;;;5054030;28;20587;-71
2022/09/15 06:58:37;;;;;;;4.32;1.42;;;19.80;62.10;;;;;;5053319;28;20175;-73
2022/09/15 07:01:04;;;;;;;3.05;1.60;;;19.90;62.10;;;;;;5054305;28;20179;-73
2022/09/15 07:03:30;;;;;;;6.05;1.67;;;19.90;61.90;;;;;;5053571;28;20175;-73
2022/09/15 07:05:55;;;;;;;3.08;1.40;;;19.90;61.90;;;;;;5054255;28;20769;-70
2022/09/15 07:08:21;;;;;;;3.35;1.92;;;19.90;61.90;;;;;;5053760;28;20207;-69
2022/09/15 07:10:47;;;;;;;10.05;1.90;;;19.90;62.90;;;;;;5053660;28;20313;-70
2022/09/15 07:13:12;;;;;;;3.22;1.30;;;19.90;61.80;;;;;;5054021;28;20175;-70
2022/09/15 07:15:38;;;;;;;3.60;1.83;;;19.90;61.90;;;;;;5054078;28;20248;-71
2022/09/15 07:18:04;;;;;;;3.58;1.70;;;19.80;61.80;;;;;;5053183;28;20561;-71
2022/09/15 07:20:30;;;;;;;1.77;1.13;;;19.80;61.80;;;;;;5054547;28;20175;-71
2022/09/15 07:22:55;;;;;;;1.85;1.35;;;19.90;61.90;;;;;;5054663;28;20198;-70
2022/09/15 07:25:21;;;;;;;2.78;1.60;;;19.90;61.90;;;;;;5052828;28;20540;-70
2022/09/15 07:27:46;;;;;;;2.53;1.90;;;19.90;61.90;;;;;;5053541;28;20662;-70
2022/09/15 07:30:12;;;;;;;2.20;1.20;;;19.90;61.90;;;;;;5053716;28;20626;-70
2022/09/15 07:32:38;;;;;;;1.98;1.20;;;19.80;61.80;;;;;;5053002;28;20179;-70
2022/09/15 07:35:04;;;;;;;2.65;1.58;;;19.80;61.80;;;;;;5053418;28;20178;-71
2022/09/15 07:37:32;;;;;;;2.20;1.75;;;19.90;61.80;;;;;;5053776;28;20178;-70
2022/09/15 07:39:57;;;;;;;2.97;1.50;;;19.90;61.70;;;;;;5052368;28;20175;-71
2022/09/15 07:42:24;;;;;;;2.25;1.30;;;19.90;61.80;;;;;;5053589;28;20205;-71
2022/09/15 07:44:50;;;;;;;1.83;1.13;;;19.90;61.70;;;;;;5052642;28;20183;-70
2022/09/15 07:47:15;;;;;;;2.58;1.20;;;19.90;61.80;;;;;;5052188;28;20266;-70
2022/09/15 07:49:42;;;;;;;2.92;1.52;;;19.90;61.80;;;;;;5053802;28;20197;-69
2022/09/15 07:52:07;;;;;;;3.08;1.33;;;19.90;61.90;;;;;;5053061;28;20171;-70
2022/09/15 07:54:33;;;;;;;1.45;1.02;;;19.90;61.80;;;;;;5052557;28;20175;-70
2022/09/15 07:56:58;;;;;;;2.42;1.13;;;19.90;61.80;;;;;;5053608;28;20227;-70
2022/09/15 07:59:24;;;;;;;2.53;1.42;;;19.90;61.90;;;;;;5053703;28;20270;-72
2022/09/15 08:01:50;;;;;;;1.10;1.00;;;19.90;61.80;;;;;;5052488;28;20178;-70
2022/09/15 08:04:15;;;;;;;2.13;1.27;;;20.00;61.70;;;;;;5052928;28;20199;-70
2022/09/15 08:06:41;;;;;;;3.17;1.13;;;20.00;61.70;;;;;;5053271;28;20310;-70
2022/09/15 08:09:07;;;;;;;1.73;1.08;;;20.00;61.80;;;;;;5052777;28;20214;-69
2022/09/15 08:11:32;;;;;;;1.50;1.17;;;20.00;61.90;;;;;;5052987;28;20178;-70
2022/09/15 08:13:59;;;;;;;1.63;1.20;;;19.90;61.80;;;;;;5052086;28;20641;-71
2022/09/15 08:16:25;;;;;;;2.78;1.10;;;19.90;61.70;;;;;;5053093;28;20205;-71
2022/09/15 08:18:51;;;;;;;2.63;1.25;;;20.00;61.80;;;;;;5053030;28;20203;-71
2022/09/15 08:21:19;;;;;;;1.45;1.10;;;19.90;61.60;;;;;;5051941;28;20183;-71
2022/09/15 08:23:44;;;;;;;1.55;1.10;;;19.90;61.80;;;;;;5052722;28;20186;-70
2022/09/15 08:26:10;;;;;;;1.80;1.13;;;20.00;61.80;;;;;;5053211;28;20171;-69
2022/09/15 08:28:36;;;;;;;2.30;1.27;;;20.00;61.90;;;;;;5052230;28;20214;-70
2022/09/15 08:31:06;;;;;;;1.02;0.93;;;20.00;61.80;;;;;;5052853;28;20194;-70
2022/09/15 08:33:31;;;;;;;2.92;1.13;;;20.00;61.80;;;;;;5052876;28;20240;-70
2022/09/15 08:36:05;;;;;;;2.30;1.40;;;20.00;61.80;;;;;;5052168;28;20179;-71
2022/09/15 08:38:31;;;;;;;2.03;1.10;;;20.00;61.80;;;;;;5053086;28;20522;-71
2022/09/15 08:41:05;;;;;;;4.03;1.20;;;20.00;61.70;;;;;;5052384;28;20182;-71
2022/09/15 08:43:35;;;;;;;1.73;1.10;;;20.00;61.80;;;;;;5052673;28;20210;-71
2022/09/15 08:46:03;;;;;;;1.92;1.25;;;20.00;61.70;;;;;;5051628;28;20174;-70
2022/09/15 08:48:35;;;;;;;1.38;1.08;;;20.00;61.70;;;;;;5052065;28;20234;-70
2022/09/15 08:51:02;;;;;;;3.35;1.00;;;20.00;61.70;;;;;;5050560;28;20237;-70
2022/09/15 08:53:44;;;;;;;4.13;1.00;;;20.00;61.60;;;;;;5052745;28;20179;-70
2022/09/15 08:56:16;;;;;;;4.47;1.10;;;20.00;61.60;;;;;;5052819;28;20533;-71
2022/09/15 08:58:42;;;;;;;2.45;1.05;;;20.00;61.50;;;;;;5057140;28;20175;-72
2022/09/15 09:01:43;;;;;;;2.33;1.08;;;20.10;61.50;;;;;;5056751;28;20205;-71
2022/09/15 09:04:27;;;;;;;2.58;1.10;;;20.10;61.50;;;;;;5054442;28;20281;-71
2022/09/15 09:07:12;;;;;;;1.30;1.00;;;20.10;61.40;;;;;;5056629;28;20222;-71
2022/09/15 09:10:01;;;;;;;3.28;1.17;;;20.10;61.40;;;;;;5056810;28;20194;-70
2022/09/15 09:12:45;;;;;;;1.95;0.90;;;20.10;61.40;;;;;;5056355;28;20262;-71
2022/09/15 09:15:26;;;;;;;3.08;0.90;;;20.10;61.40;;;;;;5056428;28;20179;-72
2022/09/15 09:18:17;;;;;;;2.78;1.10;;;20.10;61.30;;;;;;5054476;28;20171;-71
2022/09/15 09:20:50;;;;;;;1.40;1.00;;;20.10;61.30;;;;;;5055585;28;20179;-71
2022/09/15 09:23:18;;;;;;;2.05;1.15;;;20.10;61.30;;;;;;5055267;28;20179;-73
2022/09/15 09:25:44;;;;;;;2.13;1.10;;;20.10;61.20;;;;;;5054299;28;20183;-71
2022/09/15 09:28:29;;;;;;;3.47;1.35;;;20.10;61.30;;;;;;5054950;28;20207;-70
2022/09/15 09:30:58;;;;;;;1.80;1.10;;;20.10;61.30;;;;;;5056859;28;20158;-70
2022/09/15 09:33:43;;;;;;;2.08;1.30;;;20.20;61.20;;;;;;5055667;28;20254;-70
2022/09/15 09:36:10;;;;;;;2.22;1.10;;;20.20;61.20;;;;;;5055486;28;20175;-71
2022/09/15 09:38:37;;;;;;;2.83;1.15;;;20.20;61.00;;;;;;5054232;28;20183;-71
2022/09/15 09:41:05;;;;;;;2.10;1.13;;;20.30;61.00;;;;;;5055406;28;20220;-71
2022/09/15 09:43:30;;;;;;;2.53;0.88;;;20.30;60.90;;;;;;5054708;28;20179;-71
2022/09/15 09:45:56;;;;;;;3.10;1.10;;;20.30;61.00;;;;;;5055094;28;20178;-71
2022/09/15 09:48:23;;;;;;;1.90;0.85;;;20.30;60.90;;;;;;5055751;28;20203;-70
2022/09/15 09:50:49;;;;;;;1.42;0.90;;;20.30;60.90;;;;;;5054528;28;20175;-69
2022/09/15 09:53:29;;;;;;;1.85;0.73;;;20.30;61.00;;;;;;5054570;28;20179;-70
2022/09/15 09:56:14;;;;;;;2.38;1.25;;;20.30;61.20;;;;;;5055940;28;20175;-71
2022/09/15 09:58:40;;;;;;;1.65;1.23;;;20.30;61.20;;;;;;5055645;28;20175;-70
2022/09/15 10:01:17;;;;;;;2.10;1.08;;;20.30;61.20;;;;;;5054236;28;20186;-71
2022/09/15 10:03:44;;;;;;;3.50;0.88;;;20.30;61.20;;;;;;5055318;28;20257;-70
2022/09/15 10:06:14;;;;;;;2.72;1.13;;;20.30;61.20;;;;;;5053580;28;20288;-69
2022/09/15 10:08:59;;;;;;;2.25;0.98;;;20.30;61.10;;;;;;5052191;28;20210;-69
2022/09/15 10:11:40;;;;;;;2.00;0.80;;;20.20;61.10;;;;;;5054529;28;20190;-70
2022/09/15 10:14:05;;;;;;;3.40;1.33;;;20.20;61.10;;;;;;5054164;28;20186;-70
2022/09/15 10:16:31;;;;;;;0.95;0.85;;;20.20;61.10;;;;;;5053821;28;20175;-72
2022/09/15 10:18:56;;;;;;;1.38;0.73;;;20.20;61.10;;;;;;5054215;28;20178;-71
2022/09/15 10:21:23;;;;;;;2.20;0.90;;;20.20;61.20;;;;;;5053464;28;20178;-71
2022/09/15 10:23:48;;;;;;;1.33;0.82;;;20.20;61.10;;;;;;5053834;28;20179;-70
2022/09/15 10:26:14;;;;;;;1.73;1.30;;;20.20;61.10;;;;;;5054631;28;20179;-70
2022/09/15 10:28:39;;;;;;;2.83;0.82;;;20.20;61.20;;;;;;5054154;28;20218;-70
2022/09/15 10:31:07;;;;;;;2.17;0.95;;;20.20;61.10;;;;;;5055262;28;20179;-71
2022/09/15 10:33:34;;;;;;;1.95;1.02;;;20.20;61.10;;;;;;5054620;28;20229;-71
2022/09/15 10:36:04;;;;;;;1.75;0.85;;;20.20;60.90;;;;;;5053931;28;20183;-71
2022/09/15 10:38:41;;;;;;;1.05;0.82;;;20.20;60.90;;;;;;5054794;28;20175;-70
2022/09/15 10:41:30;;;;;;;1.40;0.88;;;20.20;60.90;;;;;;5053452;28;20182;-71
2022/09/15 10:44:00;;;;;;;2.10;0.90;;;20.20;60.80;;;;;;5055088;28;20198;-71
2022/09/15 10:46:27;;;;;;;1.75;1.10;;;20.20;60.70;;;;;;5055100;28;20171;-73
2022/09/15 10:49:11;;;;;;;2.35;1.08;;;20.20;60.80;;;;;;5053896;28;20312;-69
2022/09/15 10:51:52;;;;;;;2.63;1.10;;;20.20;60.80;;;;;;5054995;28;20184;-67
2022/09/15 10:54:51;;;;;;;1.40;0.50;;;20.20;60.70;;;;;;5053102;28;20179;-69
2022/09/15 10:57:28;;;;;;;1.60;0.85;;;20.20;60.60;;;;;;5051319;28;20195;-70
2022/09/15 10:59:58;;;;;;;4.32;1.00;;;20.20;60.60;;;;;;5054173;28;20203;-68
2022/09/15 11:02:31;;;;;;;1.20;0.70;;;20.20;60.50;;;;;;5053274;28;20171;-69
2022/09/15 11:05:16;;;;;;;1.48;0.80;;;20.30;60.50;;;;;;5053387;28;20175;-67
2022/09/15 11:07:59;;;;;;;1.70;1.00;;;20.30;60.30;;;;;;5054080;28;20226;-66
2022/09/15 11:10:25;;;;;;;2.47;1.02;;;20.30;60.20;;;;;;5051836;28;20744;-66
2022/09/15 11:12:56;;;;;;;3.05;0.90;;;20.30;60.10;;;;;;5053475;28;20648;-70
2022/09/15 11:15:53;;;;;;;6.22;0.98;;;20.30;60.10;;;;;;5053039;28;20182;-70
2022/09/15 11:18:24;;;;;;;5.72;0.93;;;20.40;60.10;;;;;;5051097;28;20221;-68
2022/09/15 11:20:52;;;;;;;1.85;0.98;;;20.30;59.90;;;;;;5052326;28;20175;-71
2022/09/15 11:23:25;;;;;;;1.40;0.60;;;20.40;59.90;;;;;;5053313;28;20179;-71
2022/09/15 11:25:53;;;;;;;2.17;0.70;;;20.50;59.90;;;;;;5051754;28;20171;-67
2022/09/15 11:28:22;;;;;;;4.35;0.90;;;20.50;59.80;;;;;;5052291;28;20207;-67
2022/09/15 11:31:04;;;;;;;2.38;0.73;;;20.50;59.70;;;;;;5052003;28;20232;-66
2022/09/15 11:33:41;;;;;;;5.38;1.00;;;20.50;59.80;;;;;;5052856;28;20210;-67
2022/09/15 11:36:10;;;;;;;3.55;1.02;;;20.60;59.80;;;;;;5052081;28;20175;-67
2022/09/15 11:38:52;;;;;;;4.18;1.00;;;20.60;59.80;;;;;;5051750;28;20537;-68
2022/09/15 11:42:03;;;;;;;3.17;0.88;;;20.60;59.80;;;;;;5053184;28;20195;-67
2022/09/15 11:44:33;;;;;;;3.10;1.05;;;20.60;59.90;;;;;;5031545;28;20179;-67
2022/09/15 11:47:26;;;;;;;3.47;1.05;;;20.60;59.90;;;;;;5030477;28;20207;-67
2022/09/15 11:50:12;;;;;;;2.40;0.80;;;20.60;59.90;;;;;;5039592;28;20199;-67
2022/09/15 11:53:07;;;;;;;4.72;1.25;;;20.60;59.90;;;;;;5051503;28;20641;-67
2022/09/15 11:55:54;;;;;;;3.17;0.88;;;20.70;60.00;;;;;;5052524;28;20198;-68
2022/09/15 11:58:33;;;;;;;3.83;0.90;;;20.70;59.90;;;;;;5051911;28;20179;-68
2022/09/15 12:01:09;;;;;;;3.45;1.25;;;20.70;59.90;;;;;;5051161;28;20175;-68
2022/09/15 12:03:45;;;;;;;2.45;0.77;;;20.70;59.80;;;;;;5053301;28;20187;-66
2022/09/15 12:06:20;;;;;;;3.65;0.70;;;20.70;59.70;;;;;;5050855;28;20389;-69
2022/09/15 12:08:57;;;;;;;5.25;1.05;;;20.70;59.60;;;;;;5051865;28;20207;-69
2022/09/15 12:11:24;;;;;;;2.15;0.80;;;20.80;59.60;;;;;;5051987;28;20171;-69
2022/09/15 12:13:51;;;;;;;1.70;0.80;;;20.80;59.60;;;;;;5052349;28;20179;-69
2022/09/15 12:16:16;;;;;;;3.33;0.73;;;20.90;59.60;;;;;;5051781;28;20206;-71
2022/09/15 12:19:04;;;;;;;1.23;0.70;;;20.90;59.50;;;;;;5053068;28;20195;-71
2022/09/15 12:21:38;;;;;;;4.10;0.90;;;21.00;59.50;;;;;;5051125;28;20198;-70
2022/09/15 12:24:36;;;;;;;4.30;0.85;;;21.10;59.60;;;;;;5051649;28;20175;-70
2022/09/15 12:27:02;;;;;;;1.95;0.73;;;21.00;59.50;;;;;;5050915;28;20175;-66
2022/09/15 12:29:36;;;;;;;1.50;0.60;;;21.00;59.60;;;;;;5051548;28;20269;-65
2022/09/15 12:32:27;;;;;;;3.08;1.35;;;21.10;59.50;;;;;;5052212;28;20168;-65
2022/09/15 12:35:15;;;;;;;3.75;0.82;;;21.10;59.50;;;;;;5051134;28;20553;-68
2022/09/15 12:37:41;;;;;;;2.83;1.10;;;21.00;59.70;;;;;;5053050;28;20171;-70
2022/09/15 12:40:23;;;;;;;2.22;0.90;;;20.90;59.90;;;;;;5051655;28;20175;-70
2022/09/15 12:42:48;;;;;;;2.83;0.82;;;21.00;59.80;;;;;;5051272;28;20580;-70
2022/09/15 12:45:23;;;;;;;3.65;1.20;;;20.90;59.80;;;;;;5051656;28;20175;-70
2022/09/15 12:48:06;;;;;;;2.13;0.70;;;20.80;59.90;;;;;;5050809;28;20580;-70
2022/09/15 12:50:39;;;;;;;2.53;0.90;;;20.70;59.90;;;;;;5050831;28;20175;-69
2022/09/15 12:53:20;;;;;;;2.80;0.82;;;20.70;59.90;;;;;;5051009;28;20189;-69
2022/09/15 12:55:56;;;;;;;1.50;0.88;;;20.70;60.00;;;;;;5050765;28;20179;-70
2022/09/15 12:58:25;;;;;;;3.70;0.95;;;20.60;59.90;;;;;;5051340;28;20174;-70
2022/09/15 13:00:51;;;;;;;1.10;0.68;;;20.60;59.90;;;;;;5051755;28;20163;-71
2022/09/15 13:03:35;;;;;;;1.38;0.63;;;20.60;59.80;;;;;;5049527;28;20186;-71
2022/09/15 13:06:31;;;;;;;3.15;1.23;;;20.70;59.70;;;;;;5051420;28;20219;-70